sensor_id;sensor_type;location;lat;lon;timestamp;temperature;humidity
27707;DHT22;36332;51.384;0.040;2023-06-10T00:00:04;17.80;99.90
27707;DHT22;36332;51.384;0.040;2023-06-10T00:02:41;17.80;99.90
27707;DHT22;36332;51.384;0.040;2023-06-10T00:05:09;17.70;99.90
27707;DHT22;36332;51.384;0.040;2023-06-10T00:07:37;17.70;99.90
27707;DHT22;36332;51.384;0.040;2023-06-10T00:10:06;17.70;99.90
27707;DHT22;36332;51.384;0.040;2023-06-10T00:12:34;17.70;99.90
27707;DHT22;36332;51.384;0.040;2023-06-10T00:15:06;17.70;99.90
27707;DHT22;36332;51.384;0.040;2023-06-10T00:17:35;17.70;99.90
27707;DHT22;36332;51.384;0.040;2023-06-10T00:20:08;17.70;99.90
27707;DHT22;36332;51.384;0.040;2023-06-10T00:22:38;17.60;99.90
27707;DHT22;36332;51.384;0.040;2023-06-10T00:25:07;17.60;99.90
27707;DHT22;36332;51.384;0.040;2023-06-10T00:27:35;17.60;99.90
27707;DHT22;36332;51.384;0.040;2023-06-10T00:30:04;17.60;99.90
27707;DHT22;36332;51.384;0.040;2023-06-10T00:32:35;17.60;99.90
27707;DHT22;36332;51.384;0.040;2023-06-10T00:35:06;17.50;99.90
27707;DHT22;36332;51.384;0.040;2023-06-10T00:37:36;17.60;99.90
27707;DHT22;36332;51.384;0.040;2023-06-10T00:40:04;17.50;99.90
27707;DHT22;36332;51.384;0.040;2023-06-10T00:42:32;17.50;99.90
27707;DHT22;36332;51.384;0.040;2023-06-10T00:45:00;17.50;99.90
27707;DHT22;36332;51.384;0.040;2023-06-10T00:47:29;17.40;99.90
27707;DHT22;36332;51.384;0.040;2023-06-10T00:49:58;17.40;99.90
27707;DHT22;36332;51.384;0.040;2023-06-10T00:52:28;17.40;99.90
27707;DHT22;36332;51.384;0.040;2023-06-10T00:54:57;17.40;99.90
27707;DHT22;36332;51.384;0.040;2023-06-10T00:57:26;17.40;99.90
27707;DHT22;36332;51.384;0.040;2023-06-10T00:59:54;17.30;99.90
27707;DHT22;36332;51.384;0.040;2023-06-10T01:02:22;17.30;99.90
27707;DHT22;36332;51.384;0.040;2023-06-10T01:04:50;17.20;99.90
27707;DHT22;36332;51.384;0.040;2023-06-10T01:07:31;17.20;99.90
27707;DHT22;36332;51.384;0.040;2023-06-10T01:10:06;17.20;99.90
27707;DHT22;36332;51.384;0.040;2023-06-10T01:15:08;17.10;99.90
27707;DHT22;36332;51.384;0.040;2023-06-10T01:20:23;17.00;99.90
27707;DHT22;36332;51.384;0.040;2023-06-10T01:22:51;17.00;99.90
27707;DHT22;36332;51.384;0.040;2023-06-10T01:25:23;17.00;99.90
27707;DHT22;36332;51.384;0.040;2023-06-10T01:30:39;16.90;99.90
27707;DHT22;36332;51.384;0.040;2023-06-10T01:33:11;16.80;99.90
27707;DHT22;36332;51.384;0.040;2023-06-10T01:35:41;16.80;99.90
27707;DHT22;36332;51.384;0.040;2023-06-10T01:38:12;16.80;99.90
27707;DHT22;36332;51.384;0.040;2023-06-10T01:40:42;16.70;99.90
27707;DHT22;36332;51.384;0.040;2023-06-10T01:43:10;16.70;99.90
27707;DHT22;36332;51.384;0.040;2023-06-10T01:45:39;16.70;99.90
27707;DHT22;36332;51.384;0.040;2023-06-10T01:48:07;16.60;99.90
27707;DHT22;36332;51.384;0.040;2023-06-10T01:50:36;16.60;99.90
27707;DHT22;36332;51.384;0.040;2023-06-10T01:53:04;16.60;99.90
27707;DHT22;36332;51.384;0.040;2023-06-10T01:55:35;16.50;99.90
27707;DHT22;36332;51.384;0.040;2023-06-10T01:58:03;16.50;99.90
27707;DHT22;36332;51.384;0.040;2023-06-10T02:00:31;16.50;99.90
27707;DHT22;36332;51.384;0.040;2023-06-10T02:02:59;16.40;99.90
27707;DHT22;36332;51.384;0.040;2023-06-10T02:05:27;16.40;99.90
27707;DHT22;36332;51.384;0.040;2023-06-10T02:07:54;16.40;99.90
27707;DHT22;36332;51.384;0.040;2023-06-10T02:10:22;16.40;99.90
27707;DHT22;36332;51.384;0.040;2023-06-10T02:12:50;16.40;99.90
27707;DHT22;36332;51.384;0.040;2023-06-10T02:15:18;16.30;99.90
27707;DHT22;36332;51.384;0.040;2023-06-10T02:17:46;16.30;99.90
27707;DHT22;36332;51.384;0.040;2023-06-10T02:20:16;16.30;99.90
27707;DHT22;36332;51.384;0.040;2023-06-10T02:22:44;16.30;99.90
27707;DHT22;36332;51.384;0.040;2023-06-10T02:25:11;16.20;99.90
27707;DHT22;36332;51.384;0.040;2023-06-10T02:27:39;16.20;99.90
27707;DHT22;36332;51.384;0.040;2023-06-10T02:30:09;16.20;99.90
27707;DHT22;36332;51.384;0.040;2023-06-10T02:32:38;16.20;99.90
27707;DHT22;36332;51.384;0.040;2023-06-10T02:35:06;16.20;99.90
27707;DHT22;36332;51.384;0.040;2023-06-10T02:37:34;16.20;99.90
27707;DHT22;36332;51.384;0.040;2023-06-10T02:40:02;16.20;99.90
27707;DHT22;36332;51.384;0.040;2023-06-10T02:42:32;16.10;99.90
27707;DHT22;36332;51.384;0.040;2023-06-10T02:45:01;16.10;99.90
27707;DHT22;36332;51.384;0.040;2023-06-10T02:47:41;16.10;99.90
27707;DHT22;36332;51.384;0.040;2023-06-10T02:50:10;16.10;99.90
27707;DHT22;36332;51.384;0.040;2023-06-10T02:52:48;16.00;99.90
27707;DHT22;36332;51.384;0.040;2023-06-10T02:55:16;16.00;99.90
27707;DHT22;36332;51.384;0.040;2023-06-10T02:57:50;15.90;99.90
27707;DHT22;36332;51.384;0.040;2023-06-10T03:00:20;15.90;99.90
27707;DHT22;36332;51.384;0.040;2023-06-10T03:02:49;15.90;99.90
27707;DHT22;36332;51.384;0.040;2023-06-10T03:05:23;15.90;99.90
27707;DHT22;36332;51.384;0.040;2023-06-10T03:07:52;15.90;99.90
27707;DHT22;36332;51.384;0.040;2023-06-10T03:10:21;15.80;99.90
27707;DHT22;36332;51.384;0.040;2023-06-10T03:12:49;15.80;99.90
27707;DHT22;36332;51.384;0.040;2023-06-10T03:15:17;15.80;99.90
27707;DHT22;36332;51.384;0.040;2023-06-10T03:17:49;15.80;99.90
27707;DHT22;36332;51.384;0.040;2023-06-10T03:20:17;15.80;99.90
27707;DHT22;36332;51.384;0.040;2023-06-10T03:22:46;15.80;99.90
27707;DHT22;36332;51.384;0.040;2023-06-10T03:25:13;15.70;99.90
27707;DHT22;36332;51.384;0.040;2023-06-10T03:27:46;15.70;99.90
27707;DHT22;36332;51.384;0.040;2023-06-10T03:30:14;15.70;99.90
27707;DHT22;36332;51.384;0.040;2023-06-10T03:32:43;15.70;99.90
27707;DHT22;36332;51.384;0.040;2023-06-10T03:35:15;15.70;99.90
27707;DHT22;36332;51.384;0.040;2023-06-10T03:37:42;15.60;99.90
27707;DHT22;36332;51.384;0.040;2023-06-10T03:40:10;15.60;99.90
27707;DHT22;36332;51.384;0.040;2023-06-10T03:42:42;15.60;99.90
27707;DHT22;36332;51.384;0.040;2023-06-10T03:45:14;15.30;99.90
27707;DHT22;36332;51.384;0.040;2023-06-10T03:47:42;15.60;99.90
27707;DHT22;36332;51.384;0.040;2023-06-10T03:50:14;15.60;99.90
27707;DHT22;36332;51.384;0.040;2023-06-10T03:52:43;15.60;99.90
27707;DHT22;36332;51.384;0.040;2023-06-10T03:55:13;15.50;99.90
27707;DHT22;36332;51.384;0.040;2023-06-10T03:57:44;15.60;99.90
27707;DHT22;36332;51.384;0.040;2023-06-10T04:00:12;15.50;99.90
27707;DHT22;36332;51.384;0.040;2023-06-10T04:02:43;15.50;99.90
27707;DHT22;36332;51.384;0.040;2023-06-10T04:05:23;15.50;99.90
27707;DHT22;36332;51.384;0.040;2023-06-10T04:07:52;15.50;99.90
27707;DHT22;36332;51.384;0.040;2023-06-10T04:10:19;15.50;99.90
27707;DHT22;36332;51.384;0.040;2023-06-10T04:12:47;15.50;99.90
27707;DHT22;36332;51.384;0.040;2023-06-10T04:15:15;15.50;99.90
27707;DHT22;36332;51.384;0.040;2023-06-10T04:17:43;15.50;99.90
27707;DHT22;36332;51.384;0.040;2023-06-10T04:20:12;15.50;99.90
27707;DHT22;36332;51.384;0.040;2023-06-10T04:22:43;15.50;99.90
27707;DHT22;36332;51.384;0.040;2023-06-10T04:25:11;15.50;99.90
27707;DHT22;36332;51.384;0.040;2023-06-10T04:27:41;15.50;99.90
27707;DHT22;36332;51.384;0.040;2023-06-10T04:30:10;15.80;99.90
27707;DHT22;36332;51.384;0.040;2023-06-10T04:32:39;15.50;99.90
27707;DHT22;36332;51.384;0.040;2023-06-10T04:35:12;15.60;99.90
27707;DHT22;36332;51.384;0.040;2023-06-10T04:37:41;15.70;99.90
27707;DHT22;36332;51.384;0.040;2023-06-10T04:40:11;15.70;99.90
27707;DHT22;36332;51.384;0.040;2023-06-10T04:42:39;15.70;99.90
27707;DHT22;36332;51.384;0.040;2023-06-10T04:45:09;15.70;99.90
27707;DHT22;36332;51.384;0.040;2023-06-10T04:47:37;15.80;99.90
27707;DHT22;36332;51.384;0.040;2023-06-10T04:50:06;15.80;99.90
27707;DHT22;36332;51.384;0.040;2023-06-10T04:52:34;15.80;99.90
27707;DHT22;36332;51.384;0.040;2023-06-10T04:55:02;15.90;99.90
27707;DHT22;36332;51.384;0.040;2023-06-10T04:57:30;15.90;99.90
27707;DHT22;36332;51.384;0.040;2023-06-10T04:59:57;15.90;99.90
27707;DHT22;36332;51.384;0.040;2023-06-10T05:02:25;16.00;99.90
27707;DHT22;36332;51.384;0.040;2023-06-10T05:04:53;16.50;99.90
27707;DHT22;36332;51.384;0.040;2023-06-10T05:07:22;16.10;99.90
27707;DHT22;36332;51.384;0.040;2023-06-10T05:09:49;16.10;99.90
27707;DHT22;36332;51.384;0.040;2023-06-10T05:12:18;16.10;99.90
27707;DHT22;36332;51.384;0.040;2023-06-10T05:14:45;16.20;99.90
27707;DHT22;36332;51.384;0.040;2023-06-10T05:17:13;16.20;99.90
27707;DHT22;36332;51.384;0.040;2023-06-10T05:19:41;16.20;99.90
27707;DHT22;36332;51.384;0.040;2023-06-10T05:22:10;16.30;99.90
27707;DHT22;36332;51.384;0.040;2023-06-10T05:24:38;16.30;99.90
27707;DHT22;36332;51.384;0.040;2023-06-10T05:27:06;16.20;99.90
27707;DHT22;36332;51.384;0.040;2023-06-10T05:29:35;16.40;99.90
27707;DHT22;36332;51.384;0.040;2023-06-10T05:32:03;16.50;99.90
27707;DHT22;36332;51.384;0.040;2023-06-10T05:34:31;16.50;99.90
27707;DHT22;36332;51.384;0.040;2023-06-10T05:36:59;16.60;99.90
27707;DHT22;36332;51.384;0.040;2023-06-10T05:39:27;16.60;99.90
27707;DHT22;36332;51.384;0.040;2023-06-10T05:41:55;16.70;99.90
27707;DHT22;36332;51.384;0.040;2023-06-10T05:44:22;16.70;99.90
27707;DHT22;36332;51.384;0.040;2023-06-10T05:46:50;16.80;99.90
27707;DHT22;36332;51.384;0.040;2023-06-10T05:49:19;16.80;99.90
27707;DHT22;36332;51.384;0.040;2023-06-10T05:51:47;16.90;99.90
27707;DHT22;36332;51.384;0.040;2023-06-10T05:54:15;17.00;99.90
27707;DHT22;36332;51.384;0.040;2023-06-10T05:56:42;17.00;99.90
27707;DHT22;36332;51.384;0.040;2023-06-10T05:59:10;17.10;99.90
27707;DHT22;36332;51.384;0.040;2023-06-10T06:01:38;17.20;99.90
27707;DHT22;36332;51.384;0.040;2023-06-10T06:04:06;17.20;99.90
27707;DHT22;36332;51.384;0.040;2023-06-10T06:06:35;17.30;99.90
27707;DHT22;36332;51.384;0.040;2023-06-10T06:09:03;17.40;99.90
27707;DHT22;36332;51.384;0.040;2023-06-10T06:11:31;17.40;99.90
27707;DHT22;36332;51.384;0.040;2023-06-10T06:13:58;17.50;99.90
27707;DHT22;36332;51.384;0.040;2023-06-10T06:16:26;17.60;99.90
27707;DHT22;36332;51.384;0.040;2023-06-10T06:18:54;17.70;99.90
27707;DHT22;36332;51.384;0.040;2023-06-10T06:21:22;17.70;99.90
27707;DHT22;36332;51.384;0.040;2023-06-10T06:23:49;17.80;99.90
27707;DHT22;36332;51.384;0.040;2023-06-10T06:26:17;17.80;99.90
27707;DHT22;36332;51.384;0.040;2023-06-10T06:28:45;17.90;99.90
27707;DHT22;36332;51.384;0.040;2023-06-10T06:31:12;17.90;99.90
27707;DHT22;36332;51.384;0.040;2023-06-10T06:33:41;18.00;99.90
27707;DHT22;36332;51.384;0.040;2023-06-10T06:36:09;18.10;99.90
27707;DHT22;36332;51.384;0.040;2023-06-10T06:38:36;18.20;99.90
27707;DHT22;36332;51.384;0.040;2023-06-10T06:41:04;18.40;99.90
27707;DHT22;36332;51.384;0.040;2023-06-10T06:43:34;18.30;99.90
27707;DHT22;36332;51.384;0.040;2023-06-10T06:46:23;18.40;99.90
27707;DHT22;36332;51.384;0.040;2023-06-10T06:48:50;18.50;99.90
27707;DHT22;36332;51.384;0.040;2023-06-10T06:51:18;18.60;99.90
27707;DHT22;36332;51.384;0.040;2023-06-10T06:53:46;18.70;99.90
27707;DHT22;36332;51.384;0.040;2023-06-10T06:56:13;18.80;99.90
27707;DHT22;36332;51.384;0.040;2023-06-10T06:58:41;18.80;99.90
27707;DHT22;36332;51.384;0.040;2023-06-10T07:01:09;18.90;99.90
27707;DHT22;36332;51.384;0.040;2023-06-10T07:03:37;19.00;99.90
27707;DHT22;36332;51.384;0.040;2023-06-10T07:06:04;19.10;99.90
27707;DHT22;36332;51.384;0.040;2023-06-10T07:08:32;19.20;99.90
27707;DHT22;36332;51.384;0.040;2023-06-10T07:11:00;19.30;99.90
27707;DHT22;36332;51.384;0.040;2023-06-10T07:13:28;19.40;99.90
27707;DHT22;36332;51.384;0.040;2023-06-10T07:15:55;19.50;99.90
27707;DHT22;36332;51.384;0.040;2023-06-10T07:18:23;19.60;99.90
27707;DHT22;36332;51.384;0.040;2023-06-10T07:20:51;19.70;99.90
27707;DHT22;36332;51.384;0.040;2023-06-10T07:23:18;19.80;99.90
27707;DHT22;36332;51.384;0.040;2023-06-10T07:25:46;19.90;99.90
27707;DHT22;36332;51.384;0.040;2023-06-10T07:28:14;20.00;99.90
27707;DHT22;36332;51.384;0.040;2023-06-10T07:30:42;20.10;99.90
27707;DHT22;36332;51.384;0.040;2023-06-10T07:33:09;20.20;99.90
27707;DHT22;36332;51.384;0.040;2023-06-10T07:35:38;20.40;99.90
27707;DHT22;36332;51.384;0.040;2023-06-10T07:38:05;20.50;99.90
27707;DHT22;36332;51.384;0.040;2023-06-10T07:40:33;20.60;99.90
27707;DHT22;36332;51.384;0.040;2023-06-10T07:43:01;20.80;99.90
27707;DHT22;36332;51.384;0.040;2023-06-10T07:45:29;20.80;99.90
27707;DHT22;36332;51.384;0.040;2023-06-10T07:47:57;20.90;99.90
27707;DHT22;36332;51.384;0.040;2023-06-10T07:50:25;21.00;99.90
27707;DHT22;36332;51.384;0.040;2023-06-10T07:52:53;21.10;99.90
27707;DHT22;36332;51.384;0.040;2023-06-10T07:55:20;21.30;99.90
27707;DHT22;36332;51.384;0.040;2023-06-10T07:57:48;21.40;99.90
27707;DHT22;36332;51.384;0.040;2023-06-10T08:00:16;21.50;99.90
27707;DHT22;36332;51.384;0.040;2023-06-10T08:02:45;21.60;99.90
27707;DHT22;36332;51.384;0.040;2023-06-10T08:07:42;21.80;99.90
27707;DHT22;36332;51.384;0.040;2023-06-10T08:10:10;21.90;99.90
27707;DHT22;36332;51.384;0.040;2023-06-10T08:12:38;22.00;99.90
27707;DHT22;36332;51.384;0.040;2023-06-10T08:15:06;22.20;99.90
27707;DHT22;36332;51.384;0.040;2023-06-10T08:17:34;22.30;99.90
27707;DHT22;36332;51.384;0.040;2023-06-10T08:20:02;22.50;99.90
27707;DHT22;36332;51.384;0.040;2023-06-10T08:22:31;22.70;99.90
27707;DHT22;36332;51.384;0.040;2023-06-10T08:24:59;22.70;99.90
27707;DHT22;36332;51.384;0.040;2023-06-10T08:27:27;22.90;99.90
27707;DHT22;36332;51.384;0.040;2023-06-10T08:29:54;23.10;99.90
27707;DHT22;36332;51.384;0.040;2023-06-10T08:32:22;23.30;99.90
27707;DHT22;36332;51.384;0.040;2023-06-10T08:34:50;23.40;99.90
27707;DHT22;36332;51.384;0.040;2023-06-10T08:37:20;23.60;99.90
27707;DHT22;36332;51.384;0.040;2023-06-10T08:39:47;23.70;99.90
27707;DHT22;36332;51.384;0.040;2023-06-10T08:44:55;24.10;99.90
27707;DHT22;36332;51.384;0.040;2023-06-10T08:47:24;24.20;99.90
27707;DHT22;36332;51.384;0.040;2023-06-10T08:49:53;24.40;99.90
27707;DHT22;36332;51.384;0.040;2023-06-10T08:52:24;24.40;99.90
27707;DHT22;36332;51.384;0.040;2023-06-10T08:55:14;24.60;99.90
27707;DHT22;36332;51.384;0.040;2023-06-10T08:57:43;24.70;99.90
27707;DHT22;36332;51.384;0.040;2023-06-10T09:00:13;24.90;99.90
27707;DHT22;36332;51.384;0.040;2023-06-10T09:02:41;24.90;99.90
27707;DHT22;36332;51.384;0.040;2023-06-10T09:05:09;25.10;99.90
27707;DHT22;36332;51.384;0.040;2023-06-10T09:07:38;25.30;99.90
27707;DHT22;36332;51.384;0.040;2023-06-10T09:10:06;25.50;99.90
27707;DHT22;36332;51.384;0.040;2023-06-10T09:12:35;25.60;99.90
27707;DHT22;36332;51.384;0.040;2023-06-10T09:15:06;25.80;99.90
27707;DHT22;36332;51.384;0.040;2023-06-10T09:17:34;26.00;99.90
27707;DHT22;36332;51.384;0.040;2023-06-10T09:20:04;26.10;99.90
27707;DHT22;36332;51.384;0.040;2023-06-10T09:22:36;26.30;99.90
27707;DHT22;36332;51.384;0.040;2023-06-10T09:25:09;26.50;99.90
27707;DHT22;36332;51.384;0.040;2023-06-10T09:27:45;26.60;99.90
27707;DHT22;36332;51.384;0.040;2023-06-10T09:30:32;26.80;99.90
27707;DHT22;36332;51.384;0.040;2023-06-10T09:33:02;26.90;99.90
27707;DHT22;36332;51.384;0.040;2023-06-10T09:35:31;27.00;99.90
27707;DHT22;36332;51.384;0.040;2023-06-10T09:37:59;27.10;99.90
27707;DHT22;36332;51.384;0.040;2023-06-10T09:40:28;27.20;99.90
27707;DHT22;36332;51.384;0.040;2023-06-10T09:42:58;27.30;99.90
27707;DHT22;36332;51.384;0.040;2023-06-10T09:45:31;27.40;99.90
27707;DHT22;36332;51.384;0.040;2023-06-10T09:48:00;27.50;99.90
27707;DHT22;36332;51.384;0.040;2023-06-10T09:50:33;27.60;99.90
27707;DHT22;36332;51.384;0.040;2023-06-10T09:53:01;27.80;99.90
27707;DHT22;36332;51.384;0.040;2023-06-10T09:55:33;27.90;99.90
27707;DHT22;36332;51.384;0.040;2023-06-10T09:58:00;28.00;99.90
27707;DHT22;36332;51.384;0.040;2023-06-10T10:00:32;28.20;99.90
27707;DHT22;36332;51.384;0.040;2023-06-10T10:03:00;28.40;99.90
27707;DHT22;36332;51.384;0.040;2023-06-10T10:05:29;28.60;99.90
27707;DHT22;36332;51.384;0.040;2023-06-10T10:07:57;28.80;99.90
27707;DHT22;36332;51.384;0.040;2023-06-10T10:10:25;28.90;99.90
27707;DHT22;36332;51.384;0.040;2023-06-10T10:12:56;29.00;99.90
27707;DHT22;36332;51.384;0.040;2023-06-10T10:15:28;29.20;99.90
27707;DHT22;36332;51.384;0.040;2023-06-10T10:18:11;29.30;99.90
27707;DHT22;36332;51.384;0.040;2023-06-10T10:20:51;29.40;99.90
27707;DHT22;36332;51.384;0.040;2023-06-10T10:23:38;29.50;99.90
27707;DHT22;36332;51.384;0.040;2023-06-10T10:26:09;29.90;99.90
27707;DHT22;36332;51.384;0.040;2023-06-10T10:28:41;29.90;99.90
27707;DHT22;36332;51.384;0.040;2023-06-10T10:31:15;30.00;99.90
27707;DHT22;36332;51.384;0.040;2023-06-10T10:33:54;30.30;99.90
27707;DHT22;36332;51.384;0.040;2023-06-10T10:36:24;30.40;99.90
27707;DHT22;36332;51.384;0.040;2023-06-10T10:38:52;30.50;99.90
27707;DHT22;36332;51.384;0.040;2023-06-10T10:41:21;30.60;99.90
27707;DHT22;36332;51.384;0.040;2023-06-10T10:43:49;30.70;99.90
27707;DHT22;36332;51.384;0.040;2023-06-10T10:46:19;30.80;99.90
27707;DHT22;36332;51.384;0.040;2023-06-10T10:48:52;30.70;99.90
27707;DHT22;36332;51.384;0.040;2023-06-10T10:51:23;30.70;99.90
27707;DHT22;36332;51.384;0.040;2023-06-10T10:54:12;30.70;99.90
27707;DHT22;36332;51.384;0.040;2023-06-10T10:57:19;30.80;99.90
27707;DHT22;36332;51.384;0.040;2023-06-10T11:02:41;31.00;99.90
27707;DHT22;36332;51.384;0.040;2023-06-10T11:05:13;31.00;99.90
27707;DHT22;36332;51.384;0.040;2023-06-10T11:07:55;31.20;99.90
27707;DHT22;36332;51.384;0.040;2023-06-10T11:10:37;31.20;99.90
27707;DHT22;36332;51.384;0.040;2023-06-10T11:15:48;31.30;99.90
27707;DHT22;36332;51.384;0.040;2023-06-10T11:18:26;31.30;99.90
27707;DHT22;36332;51.384;0.040;2023-06-10T11:31:22;31.90;99.90
27707;DHT22;36332;51.384;0.040;2023-06-10T11:33:57;32.00;99.90
27707;DHT22;36332;51.384;0.040;2023-06-10T11:36:25;32.10;99.90
27707;DHT22;36332;51.384;0.040;2023-06-10T11:39:04;32.20;99.90
27707;DHT22;36332;51.384;0.040;2023-06-10T11:41:34;32.20;99.90
27707;DHT22;36332;51.384;0.040;2023-06-10T11:44:04;32.30;99.90
27707;DHT22;36332;51.384;0.040;2023-06-10T11:46:33;32.40;99.90
27707;DHT22;36332;51.384;0.040;2023-06-10T11:49:01;32.50;99.90
27707;DHT22;36332;51.384;0.040;2023-06-10T11:51:39;32.60;99.40
27707;DHT22;36332;51.384;0.040;2023-06-10T11:54:10;32.70;99.10
27707;DHT22;36332;51.384;0.040;2023-06-10T11:56:38;32.80;99.20
27707;DHT22;36332;51.384;0.040;2023-06-10T11:59:06;32.90;99.10
27707;DHT22;36332;51.384;0.040;2023-06-10T12:01:43;33.10;98.80
27707;DHT22;36332;51.384;0.040;2023-06-10T12:04:16;33.30;98.10
27707;DHT22;36332;51.384;0.040;2023-06-10T12:06:50;33.50;97.60
27707;DHT22;36332;51.384;0.040;2023-06-10T12:12:02;33.90;96.10
27707;DHT22;36332;51.384;0.040;2023-06-10T12:14:53;34.00;95.70
27707;DHT22;36332;51.384;0.040;2023-06-10T12:19:51;34.20;95.10
27707;DHT22;36332;51.384;0.040;2023-06-10T12:22:19;34.40;94.70
27707;DHT22;36332;51.384;0.040;2023-06-10T12:25:00;34.60;93.80
27707;DHT22;36332;51.384;0.040;2023-06-10T12:27:30;34.70;92.60
27707;DHT22;36332;51.384;0.040;2023-06-10T12:30:01;34.80;93.10
27707;DHT22;36332;51.384;0.040;2023-06-10T12:32:40;35.00;92.50
27707;DHT22;36332;51.384;0.040;2023-06-10T12:35:10;35.20;92.10
27707;DHT22;36332;51.384;0.040;2023-06-10T12:37:40;35.40;91.40
27707;DHT22;36332;51.384;0.040;2023-06-10T12:40:11;35.70;90.70
27707;DHT22;36332;51.384;0.040;2023-06-10T12:42:39;35.90;89.40
27707;DHT22;36332;51.384;0.040;2023-06-10T12:45:09;36.00;87.00
27707;DHT22;36332;51.384;0.040;2023-06-10T12:47:38;36.40;86.00
27707;DHT22;36332;51.384;0.040;2023-06-10T12:50:07;36.60;83.90
27707;DHT22;36332;51.384;0.040;2023-06-10T12:52:36;36.70;81.60
27707;DHT22;36332;51.384;0.040;2023-06-10T12:55:05;36.90;79.40
27707;DHT22;36332;51.384;0.040;2023-06-10T12:57:33;37.10;77.00
27707;DHT22;36332;51.384;0.040;2023-06-10T13:00:01;37.20;75.50
27707;DHT22;36332;51.384;0.040;2023-06-10T13:02:33;37.40;75.10
27707;DHT22;36332;51.384;0.040;2023-06-10T13:05:02;37.60;74.10
27707;DHT22;36332;51.384;0.040;2023-06-10T13:07:30;37.70;74.00
27707;DHT22;36332;51.384;0.040;2023-06-10T13:09:58;37.90;74.10
27707;DHT22;36332;51.384;0.040;2023-06-10T13:12:26;38.00;73.70
27707;DHT22;36332;51.384;0.040;2023-06-10T13:15:13;38.20;72.80
27707;DHT22;36332;51.384;0.040;2023-06-10T13:17:43;38.30;71.60
27707;DHT22;36332;51.384;0.040;2023-06-10T13:20:13;38.30;71.70
27707;DHT22;36332;51.384;0.040;2023-06-10T13:22:41;38.40;71.70
27707;DHT22;36332;51.384;0.040;2023-06-10T13:25:10;38.50;71.60
27707;DHT22;36332;51.384;0.040;2023-06-10T13:27:38;38.60;71.10
27707;DHT22;36332;51.384;0.040;2023-06-10T13:30:10;38.80;70.60
27707;DHT22;36332;51.384;0.040;2023-06-10T13:32:38;38.90;69.70
27707;DHT22;36332;51.384;0.040;2023-06-10T13:35:07;39.00;69.30
27707;DHT22;36332;51.384;0.040;2023-06-10T13:37:36;39.20;70.80
27707;DHT22;36332;51.384;0.040;2023-06-10T13:40:05;39.30;69.40
27707;DHT22;36332;51.384;0.040;2023-06-10T13:42:34;39.20;68.50
27707;DHT22;36332;51.384;0.040;2023-06-10T13:45:04;39.10;67.70
27707;DHT22;36332;51.384;0.040;2023-06-10T13:47:33;39.10;67.10
27707;DHT22;36332;51.384;0.040;2023-06-10T13:50:01;39.00;67.20
27707;DHT22;36332;51.384;0.040;2023-06-10T13:52:29;39.60;67.20
27707;DHT22;36332;51.384;0.040;2023-06-10T13:54:56;39.20;66.30
27707;DHT22;36332;51.384;0.040;2023-06-10T13:57:24;39.30;64.80
27707;DHT22;36332;51.384;0.040;2023-06-10T13:59:52;39.20;65.30
27707;DHT22;36332;51.384;0.040;2023-06-10T14:02:20;39.10;64.70
27707;DHT22;36332;51.384;0.040;2023-06-10T14:04:48;39.10;64.50
27707;DHT22;36332;51.384;0.040;2023-06-10T14:07:16;39.10;64.10
27707;DHT22;36332;51.384;0.040;2023-06-10T14:09:44;39.10;64.10
27707;DHT22;36332;51.384;0.040;2023-06-10T14:12:12;39.30;63.80
27707;DHT22;36332;51.384;0.040;2023-06-10T14:14:40;39.50;62.70
27707;DHT22;36332;51.384;0.040;2023-06-10T14:17:08;39.50;61.80
27707;DHT22;36332;51.384;0.040;2023-06-10T14:19:35;39.60;61.50
27707;DHT22;36332;51.384;0.040;2023-06-10T14:22:03;39.70;61.20
27707;DHT22;36332;51.384;0.040;2023-06-10T14:24:35;39.70;60.70
27707;DHT22;36332;51.384;0.040;2023-06-10T14:27:03;39.80;60.20
27707;DHT22;36332;51.384;0.040;2023-06-10T14:29:31;39.80;59.90
27707;DHT22;36332;51.384;0.040;2023-06-10T14:32:01;39.80;58.90
27707;DHT22;36332;51.384;0.040;2023-06-10T14:34:32;39.70;59.50
27707;DHT22;36332;51.384;0.040;2023-06-10T14:37:01;39.60;59.40
27707;DHT22;36332;51.384;0.040;2023-06-10T14:39:31;39.50;59.40
27707;DHT22;36332;51.384;0.040;2023-06-10T14:41:59;39.50;59.30
27707;DHT22;36332;51.384;0.040;2023-06-10T14:44:27;39.60;59.40
27707;DHT22;36332;51.384;0.040;2023-06-10T14:46:54;39.60;59.10
27707;DHT22;36332;51.384;0.040;2023-06-10T14:49:22;39.70;58.70
27707;DHT22;36332;51.384;0.040;2023-06-10T14:51:50;39.70;58.90
27707;DHT22;36332;51.384;0.040;2023-06-10T14:54:18;39.70;58.00
27707;DHT22;36332;51.384;0.040;2023-06-10T14:56:45;39.70;57.80
27707;DHT22;36332;51.384;0.040;2023-06-10T14:59:13;39.70;57.70
27707;DHT22;36332;51.384;0.040;2023-06-10T15:01:41;39.80;57.10
27707;DHT22;36332;51.384;0.040;2023-06-10T15:04:09;39.90;57.30
27707;DHT22;36332;51.384;0.040;2023-06-10T15:06:37;39.90;57.10
27707;DHT22;36332;51.384;0.040;2023-06-10T15:09:04;40.00;57.10
27707;DHT22;36332;51.384;0.040;2023-06-10T15:11:32;40.00;57.00
27707;DHT22;36332;51.384;0.040;2023-06-10T15:14:00;40.10;56.80
27707;DHT22;36332;51.384;0.040;2023-06-10T15:16:27;40.10;56.60
27707;DHT22;36332;51.384;0.040;2023-06-10T15:18:55;40.10;56.60
27707;DHT22;36332;51.384;0.040;2023-06-10T15:21:23;40.10;56.40
27707;DHT22;36332;51.384;0.040;2023-06-10T15:23:50;40.20;56.30
27707;DHT22;36332;51.384;0.040;2023-06-10T15:26:18;40.30;56.20
27707;DHT22;36332;51.384;0.040;2023-06-10T15:28:46;40.30;56.00
27707;DHT22;36332;51.384;0.040;2023-06-10T15:31:14;40.40;56.00
27707;DHT22;36332;51.384;0.040;2023-06-10T15:33:42;40.50;55.60
27707;DHT22;36332;51.384;0.040;2023-06-10T15:36:13;40.60;55.10
27707;DHT22;36332;51.384;0.040;2023-06-10T15:38:41;40.50;54.60
27707;DHT22;36332;51.384;0.040;2023-06-10T15:41:09;40.50;55.20
27707;DHT22;36332;51.384;0.040;2023-06-10T15:43:37;40.50;55.00
27707;DHT22;36332;51.384;0.040;2023-06-10T15:46:04;40.50;54.80
27707;DHT22;36332;51.384;0.040;2023-06-10T15:48:32;40.30;54.70
27707;DHT22;36332;51.384;0.040;2023-06-10T15:50:59;40.10;54.80
27707;DHT22;36332;51.384;0.040;2023-06-10T15:53:27;39.90;54.70
27707;DHT22;36332;51.384;0.040;2023-06-10T15:55:55;39.70;54.70
27707;DHT22;36332;51.384;0.040;2023-06-10T15:58:22;39.50;54.70
27707;DHT22;36332;51.384;0.040;2023-06-10T16:00:50;39.40;54.70
27707;DHT22;36332;51.384;0.040;2023-06-10T16:03:18;39.40;54.80
27707;DHT22;36332;51.384;0.040;2023-06-10T16:05:46;39.50;54.60
27707;DHT22;36332;51.384;0.040;2023-06-10T16:08:14;39.60;54.10
27707;DHT22;36332;51.384;0.040;2023-06-10T16:10:41;39.60;54.50
27707;DHT22;36332;51.384;0.040;2023-06-10T16:13:09;39.80;54.10
27707;DHT22;36332;51.384;0.040;2023-06-10T16:15:37;39.80;54.00
27707;DHT22;36332;51.384;0.040;2023-06-10T16:18:04;40.00;54.10